SBOSBO BQH / EGKB
Speedbird OnlineSpeedbird Online BQH / EGKB

London Biggin Hill Airport
19:48 -1.8°C

Location Biggin Hill, United Kingdom
Latitude: 51.33079910279999
Longitude: 0.0324999988079
Web Airport Website | Wikipedia
Altitude 182 Meter / 598 Feet
Distance 21 KM / 13 Miles
from London.
Time Zone UTC 0 hours (Europe/London)
Codes IATA: BQH
ICAO: EGKB
Runways
RunwayLength (m)Surface
031802Asphalt
11792Asphalt
211802Asphalt
29792Asphalt
Radio
TypeDescriptionFrequency
APPAPP129.4
ATISATIS135.675
RDRTHAMES RDR132.7
TWRTWR134.8
Live ATC
METAR EGKB 091920Z 27005KT 240V300 CAVOK M00/M02 Q1008
TAF TAF AMD EGKB 091816Z 0918/0923 30004KT 9999 SCT018 TEMPO 0918/0923 4000 BR
Weather As Of 09 Dec 2022 19:48
Description Clear sky
Wind 9 km/h from West (270°)
Cloud Cover 0%
Precipitation Rain: none, Snow: none
Sunrise 07:52
Sunset 15:52


© 2017-2022 Speedbird Online